sensor_id;sensor_type;location;lat;lon;timestamp;P1;durP1;ratioP1;P2;durP2;ratioP2
2896;SDS011;1458;49.728;9.228;2023-02-28T00:01:13;7.30;;;7.20;;
2896;SDS011;1458;49.728;9.228;2023-02-28T00:03:41;7.00;;;6.90;;
2896;SDS011;1458;49.728;9.228;2023-02-28T00:06:09;6.90;;;6.80;;
2896;SDS011;1458;49.728;9.228;2023-02-28T00:08:38;6.60;;;6.60;;
2896;SDS011;1458;49.728;9.228;2023-02-28T00:11:06;6.60;;;6.60;;
2896;SDS011;1458;49.728;9.228;2023-02-28T00:13:36;6.60;;;6.60;;
2896;SDS011;1458;49.728;9.228;2023-02-28T00:16:08;6.53;;;6.53;;
2896;SDS011;1458;49.728;9.228;2023-02-28T00:18:38;6.40;;;6.40;;
2896;SDS011;1458;49.728;9.228;2023-02-28T00:21:06;6.30;;;6.30;;
2896;SDS011;1458;49.728;9.228;2023-02-28T00:23:34;6.50;;;6.50;;
2896;SDS011;1458;49.728;9.228;2023-02-28T00:26:03;6.40;;;6.40;;
2896;SDS011;1458;49.728;9.228;2023-02-28T00:28:31;6.40;;;6.40;;
2896;SDS011;1458;49.728;9.228;2023-02-28T00:30:58;6.40;;;6.40;;
2896;SDS011;1458;49.728;9.228;2023-02-28T00:33:30;6.33;;;6.33;;
2896;SDS011;1458;49.728;9.228;2023-02-28T00:36:05;6.27;;;6.27;;
2896;SDS011;1458;49.728;9.228;2023-02-28T00:38:38;6.17;;;6.17;;
2896;SDS011;1458;49.728;9.228;2023-02-28T00:41:08;6.00;;;6.00;;
2896;SDS011;1458;49.728;9.228;2023-02-28T00:43:36;6.10;;;6.10;;
2896;SDS011;1458;49.728;9.228;2023-02-28T00:46:05;5.87;;;5.87;;
2896;SDS011;1458;49.728;9.228;2023-02-28T00:48:32;5.70;;;5.70;;
2896;SDS011;1458;49.728;9.228;2023-02-28T00:51:00;5.60;;;5.60;;
2896;SDS011;1458;49.728;9.228;2023-02-28T00:53:28;5.60;;;5.60;;
2896;SDS011;1458;49.728;9.228;2023-02-28T00:55:57;5.80;;;5.80;;
2896;SDS011;1458;49.728;9.228;2023-02-28T00:58:26;5.10;;;5.10;;
2896;SDS011;1458;49.728;9.228;2023-02-28T01:00:54;5.30;;;5.30;;
2896;SDS011;1458;49.728;9.228;2023-02-28T01:03:23;5.10;;;5.10;;
2896;SDS011;1458;49.728;9.228;2023-02-28T01:05:50;5.00;;;5.00;;
2896;SDS011;1458;49.728;9.228;2023-02-28T01:08:18;5.07;;;5.07;;
2896;SDS011;1458;49.728;9.228;2023-02-28T01:10:47;5.17;;;5.17;;
2896;SDS011;1458;49.728;9.228;2023-02-28T01:13:15;5.00;;;5.00;;
2896;SDS011;1458;49.728;9.228;2023-02-28T01:15:45;5.10;;;5.10;;
2896;SDS011;1458;49.728;9.228;2023-02-28T01:18:16;5.00;;;5.00;;
2896;SDS011;1458;49.728;9.228;2023-02-28T01:20:44;5.00;;;5.00;;
2896;SDS011;1458;49.728;9.228;2023-02-28T01:23:11;5.03;;;5.03;;
2896;SDS011;1458;49.728;9.228;2023-02-28T01:25:39;4.90;;;4.90;;
2896;SDS011;1458;49.728;9.228;2023-02-28T01:28:06;4.83;;;4.83;;
2896;SDS011;1458;49.728;9.228;2023-02-28T01:30:34;5.10;;;5.10;;
2896;SDS011;1458;49.728;9.228;2023-02-28T01:33:03;4.97;;;4.97;;
2896;SDS011;1458;49.728;9.228;2023-02-28T01:35:31;5.00;;;5.00;;
2896;SDS011;1458;49.728;9.228;2023-02-28T01:37:59;4.70;;;4.70;;
2896;SDS011;1458;49.728;9.228;2023-02-28T01:40:27;5.13;;;5.13;;
2896;SDS011;1458;49.728;9.228;2023-02-28T01:42:54;5.00;;;5.00;;
2896;SDS011;1458;49.728;9.228;2023-02-28T01:45:22;4.83;;;4.83;;
2896;SDS011;1458;49.728;9.228;2023-02-28T01:47:54;5.10;;;5.10;;
2896;SDS011;1458;49.728;9.228;2023-02-28T01:50:28;4.30;;;4.30;;
2896;SDS011;1458;49.728;9.228;2023-02-28T01:52:59;4.80;;;4.80;;
2896;SDS011;1458;49.728;9.228;2023-02-28T01:55:32;4.90;;;4.90;;
2896;SDS011;1458;49.728;9.228;2023-02-28T01:58:02;4.50;;;4.50;;
2896;SDS011;1458;49.728;9.228;2023-02-28T02:00:31;4.50;;;4.50;;
2896;SDS011;1458;49.728;9.228;2023-02-28T02:02:59;4.60;;;4.60;;
2896;SDS011;1458;49.728;9.228;2023-02-28T02:05:37;4.30;;;4.30;;
2896;SDS011;1458;49.728;9.228;2023-02-28T02:08:06;4.40;;;4.40;;
2896;SDS011;1458;49.728;9.228;2023-02-28T02:10:39;4.30;;;4.30;;
2896;SDS011;1458;49.728;9.228;2023-02-28T02:13:16;4.13;;;4.13;;
2896;SDS011;1458;49.728;9.228;2023-02-28T02:16:08;4.30;;;4.30;;
2896;SDS011;1458;49.728;9.228;2023-02-28T02:18:48;4.10;;;4.10;;
2896;SDS011;1458;49.728;9.228;2023-02-28T02:24:47;3.97;;;3.97;;
2896;SDS011;1458;49.728;9.228;2023-02-28T02:27:43;4.10;;;4.10;;
2896;SDS011;1458;49.728;9.228;2023-02-28T02:30:42;4.07;;;4.07;;
2896;SDS011;1458;49.728;9.228;2023-02-28T02:36:59;3.60;;;3.60;;
2896;SDS011;1458;49.728;9.228;2023-02-28T02:39:39;3.60;;;3.60;;
2896;SDS011;1458;49.728;9.228;2023-02-28T02:42:15;3.73;;;3.73;;
2896;SDS011;1458;49.728;9.228;2023-02-28T02:44:51;3.60;;;3.60;;
2896;SDS011;1458;49.728;9.228;2023-02-28T02:47:26;4.20;;;4.20;;
2896;SDS011;1458;49.728;9.228;2023-02-28T02:49:59;3.90;;;3.90;;
2896;SDS011;1458;49.728;9.228;2023-02-28T02:52:34;3.90;;;3.90;;
2896;SDS011;1458;49.728;9.228;2023-02-28T02:55:07;4.37;;;4.37;;
2896;SDS011;1458;49.728;9.228;2023-02-28T02:57:38;3.80;;;3.80;;
2896;SDS011;1458;49.728;9.228;2023-02-28T03:00:13;3.70;;;3.70;;
2896;SDS011;1458;49.728;9.228;2023-02-28T03:02:45;4.00;;;4.00;;
2896;SDS011;1458;49.728;9.228;2023-02-28T03:05:17;3.80;;;3.80;;
2896;SDS011;1458;49.728;9.228;2023-02-28T03:07:51;3.80;;;3.80;;
2896;SDS011;1458;49.728;9.228;2023-02-28T03:10:26;3.70;;;3.70;;
2896;SDS011;1458;49.728;9.228;2023-02-28T03:13:04;3.70;;;3.70;;
2896;SDS011;1458;49.728;9.228;2023-02-28T03:16:28;3.70;;;3.70;;
2896;SDS011;1458;49.728;9.228;2023-02-28T03:19:08;3.80;;;3.80;;
2896;SDS011;1458;49.728;9.228;2023-02-28T03:22:09;3.90;;;3.90;;
2896;SDS011;1458;49.728;9.228;2023-02-28T03:25:05;4.47;;;4.47;;
2896;SDS011;1458;49.728;9.228;2023-02-28T03:27:38;4.10;;;4.10;;
2896;SDS011;1458;49.728;9.228;2023-02-28T03:30:10;3.80;;;3.80;;
2896;SDS011;1458;49.728;9.228;2023-02-28T03:32:42;3.87;;;3.87;;
2896;SDS011;1458;49.728;9.228;2023-02-28T03:35:18;3.60;;;3.60;;
2896;SDS011;1458;49.728;9.228;2023-02-28T03:37:52;3.53;;;3.53;;
2896;SDS011;1458;49.728;9.228;2023-02-28T03:40:26;3.60;;;3.60;;
2896;SDS011;1458;49.728;9.228;2023-02-28T03:43:01;3.40;;;3.40;;
2896;SDS011;1458;49.728;9.228;2023-02-28T03:45:36;3.50;;;3.50;;
2896;SDS011;1458;49.728;9.228;2023-02-28T03:48:07;3.40;;;3.40;;
2896;SDS011;1458;49.728;9.228;2023-02-28T03:50:40;3.23;;;3.23;;
2896;SDS011;1458;49.728;9.228;2023-02-28T03:53:12;3.20;;;3.20;;
2896;SDS011;1458;49.728;9.228;2023-02-28T03:55:45;3.10;;;3.10;;
2896;SDS011;1458;49.728;9.228;2023-02-28T03:58:18;3.20;;;3.20;;
2896;SDS011;1458;49.728;9.228;2023-02-28T04:00:55;3.10;;;3.10;;
2896;SDS011;1458;49.728;9.228;2023-02-28T04:03:33;3.10;;;3.10;;
2896;SDS011;1458;49.728;9.228;2023-02-28T04:06:01;3.00;;;3.00;;
2896;SDS011;1458;49.728;9.228;2023-02-28T04:08:31;3.00;;;3.00;;
2896;SDS011;1458;49.728;9.228;2023-02-28T04:11:00;2.97;;;2.97;;
2896;SDS011;1458;49.728;9.228;2023-02-28T04:13:31;2.93;;;2.93;;
2896;SDS011;1458;49.728;9.228;2023-02-28T04:15:58;2.80;;;2.80;;
2896;SDS011;1458;49.728;9.228;2023-02-28T04:18:26;2.70;;;2.70;;
2896;SDS011;1458;49.728;9.228;2023-02-28T04:20:53;2.80;;;2.80;;
2896;SDS011;1458;49.728;9.228;2023-02-28T04:23:20;2.80;;;2.80;;
2896;SDS011;1458;49.728;9.228;2023-02-28T04:25:49;2.60;;;2.60;;
2896;SDS011;1458;49.728;9.228;2023-02-28T04:28:16;2.60;;;2.60;;
2896;SDS011;1458;49.728;9.228;2023-02-28T04:30:44;2.70;;;2.70;;
2896;SDS011;1458;49.728;9.228;2023-02-28T04:33:11;2.73;;;2.73;;
2896;SDS011;1458;49.728;9.228;2023-02-28T04:35:38;2.60;;;2.60;;
2896;SDS011;1458;49.728;9.228;2023-02-28T04:38:06;2.90;;;2.90;;
2896;SDS011;1458;49.728;9.228;2023-02-28T04:40:33;3.00;;;3.00;;
2896;SDS011;1458;49.728;9.228;2023-02-28T04:43:05;2.90;;;2.90;;
2896;SDS011;1458;49.728;9.228;2023-02-28T04:45:33;2.70;;;2.70;;
2896;SDS011;1458;49.728;9.228;2023-02-28T04:48:01;2.70;;;2.70;;
2896;SDS011;1458;49.728;9.228;2023-02-28T04:50:28;2.80;;;2.80;;
2896;SDS011;1458;49.728;9.228;2023-02-28T04:52:56;2.80;;;2.80;;
2896;SDS011;1458;49.728;9.228;2023-02-28T04:55:24;2.80;;;2.80;;
2896;SDS011;1458;49.728;9.228;2023-02-28T04:57:51;2.80;;;2.80;;
2896;SDS011;1458;49.728;9.228;2023-02-28T05:00:20;2.70;;;2.70;;
2896;SDS011;1458;49.728;9.228;2023-02-28T05:02:47;2.70;;;2.70;;
2896;SDS011;1458;49.728;9.228;2023-02-28T05:05:15;2.77;;;2.77;;
2896;SDS011;1458;49.728;9.228;2023-02-28T05:07:43;2.80;;;2.80;;
2896;SDS011;1458;49.728;9.228;2023-02-28T05:10:11;2.70;;;2.70;;
2896;SDS011;1458;49.728;9.228;2023-02-28T05:12:38;2.50;;;2.50;;
2896;SDS011;1458;49.728;9.228;2023-02-28T05:15:06;2.50;;;2.50;;
2896;SDS011;1458;49.728;9.228;2023-02-28T05:17:37;2.40;;;2.40;;
2896;SDS011;1458;49.728;9.228;2023-02-28T05:20:05;2.20;;;2.20;;
2896;SDS011;1458;49.728;9.228;2023-02-28T05:22:35;2.40;;;2.40;;
2896;SDS011;1458;49.728;9.228;2023-02-28T05:25:03;2.30;;;2.30;;
2896;SDS011;1458;49.728;9.228;2023-02-28T05:27:31;2.30;;;2.30;;
2896;SDS011;1458;49.728;9.228;2023-02-28T05:29:59;2.40;;;2.40;;
2896;SDS011;1458;49.728;9.228;2023-02-28T05:32:28;2.30;;;2.30;;
2896;SDS011;1458;49.728;9.228;2023-02-28T05:34:57;2.30;;;2.30;;
2896;SDS011;1458;49.728;9.228;2023-02-28T05:37:24;2.37;;;2.37;;
2896;SDS011;1458;49.728;9.228;2023-02-28T05:39:52;2.30;;;2.30;;
2896;SDS011;1458;49.728;9.228;2023-02-28T05:42:19;2.40;;;2.40;;
2896;SDS011;1458;49.728;9.228;2023-02-28T05:44:46;2.50;;;2.50;;
2896;SDS011;1458;49.728;9.228;2023-02-28T05:47:14;2.40;;;2.40;;
2896;SDS011;1458;49.728;9.228;2023-02-28T05:49:44;2.60;;;2.60;;
2896;SDS011;1458;49.728;9.228;2023-02-28T05:52:14;2.60;;;2.60;;
2896;SDS011;1458;49.728;9.228;2023-02-28T05:54:41;2.57;;;2.57;;
2896;SDS011;1458;49.728;9.228;2023-02-28T05:57:09;2.60;;;2.60;;
2896;SDS011;1458;49.728;9.228;2023-02-28T05:59:36;2.70;;;2.70;;
2896;SDS011;1458;49.728;9.228;2023-02-28T06:02:05;2.50;;;2.50;;
2896;SDS011;1458;49.728;9.228;2023-02-28T06:04:35;2.70;;;2.70;;
2896;SDS011;1458;49.728;9.228;2023-02-28T06:07:02;2.80;;;2.80;;
2896;SDS011;1458;49.728;9.228;2023-02-28T06:09:31;2.70;;;2.70;;
2896;SDS011;1458;49.728;9.228;2023-02-28T06:11:58;2.57;;;2.57;;
2896;SDS011;1458;49.728;9.228;2023-02-28T06:14:28;2.60;;;2.60;;
2896;SDS011;1458;49.728;9.228;2023-02-28T06:16:56;2.60;;;2.60;;
2896;SDS011;1458;49.728;9.228;2023-02-28T06:19:23;2.67;;;2.67;;
2896;SDS011;1458;49.728;9.228;2023-02-28T06:21:51;2.70;;;2.70;;
2896;SDS011;1458;49.728;9.228;2023-02-28T06:24:20;2.73;;;2.73;;
2896;SDS011;1458;49.728;9.228;2023-02-28T06:26:49;2.63;;;2.63;;
2896;SDS011;1458;49.728;9.228;2023-02-28T06:29:16;2.70;;;2.70;;
2896;SDS011;1458;49.728;9.228;2023-02-28T06:31:46;2.70;;;2.70;;
2896;SDS011;1458;49.728;9.228;2023-02-28T06:34:14;2.80;;;2.80;;
2896;SDS011;1458;49.728;9.228;2023-02-28T06:36:42;2.63;;;2.63;;
2896;SDS011;1458;49.728;9.228;2023-02-28T06:39:10;2.63;;;2.63;;
2896;SDS011;1458;49.728;9.228;2023-02-28T06:41:37;2.80;;;2.80;;
2896;SDS011;1458;49.728;9.228;2023-02-28T06:44:08;2.70;;;2.70;;
2896;SDS011;1458;49.728;9.228;2023-02-28T06:46:39;2.60;;;2.60;;
2896;SDS011;1458;49.728;9.228;2023-02-28T06:49:07;2.70;;;2.70;;
2896;SDS011;1458;49.728;9.228;2023-02-28T06:51:36;2.60;;;2.60;;
2896;SDS011;1458;49.728;9.228;2023-02-28T06:54:06;2.60;;;2.60;;
2896;SDS011;1458;49.728;9.228;2023-02-28T06:56:34;2.40;;;2.40;;
2896;SDS011;1458;49.728;9.228;2023-02-28T06:59:02;2.60;;;2.60;;
2896;SDS011;1458;49.728;9.228;2023-02-28T07:01:31;3.00;;;3.00;;
2896;SDS011;1458;49.728;9.228;2023-02-28T07:03:59;3.00;;;3.00;;
2896;SDS011;1458;49.728;9.228;2023-02-28T07:06:27;2.90;;;2.90;;
2896;SDS011;1458;49.728;9.228;2023-02-28T07:08:54;2.80;;;2.80;;
2896;SDS011;1458;49.728;9.228;2023-02-28T07:11:23;3.17;;;3.17;;
2896;SDS011;1458;49.728;9.228;2023-02-28T07:13:52;3.50;;;3.50;;
2896;SDS011;1458;49.728;9.228;2023-02-28T07:16:20;3.30;;;3.30;;
2896;SDS011;1458;49.728;9.228;2023-02-28T07:18:51;3.53;;;3.53;;
2896;SDS011;1458;49.728;9.228;2023-02-28T07:21:20;3.70;;;3.70;;
2896;SDS011;1458;49.728;9.228;2023-02-28T07:23:48;4.10;;;4.10;;
2896;SDS011;1458;49.728;9.228;2023-02-28T07:26:17;4.10;;;4.10;;
2896;SDS011;1458;49.728;9.228;2023-02-28T07:28:46;3.90;;;3.90;;
2896;SDS011;1458;49.728;9.228;2023-02-28T07:31:15;4.20;;;4.20;;
2896;SDS011;1458;49.728;9.228;2023-02-28T07:33:43;4.30;;;4.30;;
2896;SDS011;1458;49.728;9.228;2023-02-28T07:36:13;4.60;;;4.60;;
2896;SDS011;1458;49.728;9.228;2023-02-28T07:38:44;4.67;;;4.67;;
2896;SDS011;1458;49.728;9.228;2023-02-28T07:41:13;5.00;;;5.00;;
2896;SDS011;1458;49.728;9.228;2023-02-28T07:47:05;5.10;;;5.10;;
2896;SDS011;1458;49.728;9.228;2023-02-28T07:49:34;5.07;;;5.07;;
2896;SDS011;1458;49.728;9.228;2023-02-28T07:52:03;5.20;;;5.20;;
2896;SDS011;1458;49.728;9.228;2023-02-28T07:54:32;5.30;;;5.30;;
2896;SDS011;1458;49.728;9.228;2023-02-28T07:57:00;4.80;;;4.80;;
2896;SDS011;1458;49.728;9.228;2023-02-28T07:59:28;4.80;;;4.80;;
2896;SDS011;1458;49.728;9.228;2023-02-28T08:01:56;5.27;;;5.27;;
2896;SDS011;1458;49.728;9.228;2023-02-28T08:04:25;5.40;;;5.40;;
2896;SDS011;1458;49.728;9.228;2023-02-28T08:06:53;5.70;;;5.70;;
2896;SDS011;1458;49.728;9.228;2023-02-28T08:09:36;5.40;;;5.40;;
2896;SDS011;1458;49.728;9.228;2023-02-28T08:12:07;5.90;;;5.90;;
2896;SDS011;1458;49.728;9.228;2023-02-28T08:14:36;6.10;;;6.10;;
2896;SDS011;1458;49.728;9.228;2023-02-28T08:17:04;6.40;;;6.40;;
2896;SDS011;1458;49.728;9.228;2023-02-28T08:19:35;6.40;;;6.40;;
2896;SDS011;1458;49.728;9.228;2023-02-28T08:22:03;6.40;;;6.40;;
2896;SDS011;1458;49.728;9.228;2023-02-28T08:24:31;6.60;;;6.60;;
2896;SDS011;1458;49.728;9.228;2023-02-28T08:26:59;6.80;;;6.70;;
2896;SDS011;1458;49.728;9.228;2023-02-28T08:29:26;6.93;;;6.83;;
2896;SDS011;1458;49.728;9.228;2023-02-28T08:35:07;7.70;;;7.60;;
2896;SDS011;1458;49.728;9.228;2023-02-28T08:37:35;7.20;;;7.10;;
2896;SDS011;1458;49.728;9.228;2023-02-28T08:40:05;7.27;;;7.17;;
2896;SDS011;1458;49.728;9.228;2023-02-28T08:42:34;7.50;;;7.40;;
2896;SDS011;1458;49.728;9.228;2023-02-28T08:45:02;8.00;;;7.90;;
2896;SDS011;1458;49.728;9.228;2023-02-28T08:47:31;8.03;;;7.93;;
2896;SDS011;1458;49.728;9.228;2023-02-28T08:49:58;7.80;;;7.70;;
2896;SDS011;1458;49.728;9.228;2023-02-28T08:52:26;8.00;;;7.90;;
2896;SDS011;1458;49.728;9.228;2023-02-28T08:58:04;8.20;;;8.10;;
2896;SDS011;1458;49.728;9.228;2023-02-28T09:00:32;8.50;;;8.40;;
2896;SDS011;1458;49.728;9.228;2023-02-28T09:02:59;9.10;;;8.90;;
2896;SDS011;1458;49.728;9.228;2023-02-28T09:05:26;8.73;;;8.63;;
2896;SDS011;1458;49.728;9.228;2023-02-28T09:07:55;8.97;;;8.77;;
2896;SDS011;1458;49.728;9.228;2023-02-28T09:10:22;9.20;;;9.00;;
2896;SDS011;1458;49.728;9.228;2023-02-28T09:12:51;9.20;;;9.00;;
2896;SDS011;1458;49.728;9.228;2023-02-28T09:15:18;9.90;;;9.70;;
2896;SDS011;1458;49.728;9.228;2023-02-28T09:17:48;9.37;;;9.17;;
2896;SDS011;1458;49.728;9.228;2023-02-28T09:20:16;9.30;;;9.10;;
2896;SDS011;1458;49.728;9.228;2023-02-28T09:22:44;9.80;;;9.60;;
2896;SDS011;1458;49.728;9.228;2023-02-28T09:25:11;10.00;;;9.80;;
2896;SDS011;1458;49.728;9.228;2023-02-28T09:27:39;9.97;;;9.77;;
2896;SDS011;1458;49.728;9.228;2023-02-28T09:30:08;10.10;;;9.90;;
2896;SDS011;1458;49.728;9.228;2023-02-28T09:32:37;9.93;;;9.73;;
2896;SDS011;1458;49.728;9.228;2023-02-28T09:35:05;9.80;;;9.60;;
2896;SDS011;1458;49.728;9.228;2023-02-28T09:37:38;10.50;;;10.30;;
2896;SDS011;1458;49.728;9.228;2023-02-28T09:40:07;10.13;;;9.93;;
2896;SDS011;1458;49.728;9.228;2023-02-28T09:42:37;10.30;;;10.10;;
2896;SDS011;1458;49.728;9.228;2023-02-28T09:45:06;10.10;;;9.90;;
2896;SDS011;1458;49.728;9.228;2023-02-28T09:47:46;10.30;;;10.10;;
2896;SDS011;1458;49.728;9.228;2023-02-28T09:50:17;10.60;;;10.40;;
2896;SDS011;1458;49.728;9.228;2023-02-28T09:52:55;10.60;;;10.40;;
2896;SDS011;1458;49.728;9.228;2023-02-28T09:55:26;10.90;;;10.60;;
2896;SDS011;1458;49.728;9.228;2023-02-28T09:57:58;11.20;;;10.90;;
2896;SDS011;1458;49.728;9.228;2023-02-28T10:00:30;10.90;;;10.60;;
2896;SDS011;1458;49.728;9.228;2023-02-28T10:05:54;11.00;;;10.70;;
2896;SDS011;1458;49.728;9.228;2023-02-28T10:08:30;10.70;;;10.50;;
2896;SDS011;1458;49.728;9.228;2023-02-28T10:11:06;11.00;;;10.70;;
2896;SDS011;1458;49.728;9.228;2023-02-28T10:13:37;11.60;;;11.30;;
2896;SDS011;1458;49.728;9.228;2023-02-28T10:16:21;11.70;;;11.40;;
2896;SDS011;1458;49.728;9.228;2023-02-28T10:18:54;11.40;;;11.10;;
2896;SDS011;1458;49.728;9.228;2023-02-28T10:21:26;11.60;;;11.30;;
2896;SDS011;1458;49.728;9.228;2023-02-28T10:24:00;11.60;;;11.30;;
2896;SDS011;1458;49.728;9.228;2023-02-28T10:26:32;11.40;;;11.10;;
2896;SDS011;1458;49.728;9.228;2023-02-28T10:29:00;11.60;;;11.30;;
2896;SDS011;1458;49.728;9.228;2023-02-28T10:31:29;11.70;;;11.40;;
2896;SDS011;1458;49.728;9.228;2023-02-28T10:33:57;11.60;;;11.30;;
2896;SDS011;1458;49.728;9.228;2023-02-28T10:36:24;11.90;;;11.60;;
2896;SDS011;1458;49.728;9.228;2023-02-28T10:38:52;12.13;;;11.83;;
2896;SDS011;1458;49.728;9.228;2023-02-28T10:41:27;12.10;;;11.80;;
2896;SDS011;1458;49.728;9.228;2023-02-28T10:44:12;12.23;;;11.93;;
2896;SDS011;1458;49.728;9.228;2023-02-28T10:46:45;12.00;;;11.70;;
2896;SDS011;1458;49.728;9.228;2023-02-28T10:49:17;12.00;;;11.70;;
2896;SDS011;1458;49.728;9.228;2023-02-28T10:51:48;11.70;;;11.40;;
2896;SDS011;1458;49.728;9.228;2023-02-28T10:54:20;12.03;;;11.73;;
2896;SDS011;1458;49.728;9.228;2023-02-28T10:57:15;11.57;;;11.27;;
2896;SDS011;1458;49.728;9.228;2023-02-28T10:59:44;12.10;;;11.80;;
2896;SDS011;1458;49.728;9.228;2023-02-28T11:02:33;12.00;;;11.70;;
2896;SDS011;1458;49.728;9.228;2023-02-28T11:05:14;11.90;;;11.60;;
2896;SDS011;1458;49.728;9.228;2023-02-28T11:07:51;11.90;;;11.60;;
2896;SDS011;1458;49.728;9.228;2023-02-28T11:10:24;11.80;;;11.50;;
2896;SDS011;1458;49.728;9.228;2023-02-28T11:12:55;12.00;;;11.70;;
2896;SDS011;1458;49.728;9.228;2023-02-28T11:15:25;12.60;;;12.20;;
2896;SDS011;1458;49.728;9.228;2023-02-28T11:17:59;12.40;;;12.10;;
2896;SDS011;1458;49.728;9.228;2023-02-28T11:20:31;12.23;;;11.90;;
2896;SDS011;1458;49.728;9.228;2023-02-28T11:23:00;12.73;;;12.33;;
2896;SDS011;1458;49.728;9.228;2023-02-28T11:25:31;12.70;;;12.30;;
2896;SDS011;1458;49.728;9.228;2023-02-28T11:28:01;12.83;;;12.43;;
2896;SDS011;1458;49.728;9.228;2023-02-28T11:30:35;12.57;;;12.20;;
2896;SDS011;1458;49.728;9.228;2023-02-28T11:36:09;13.10;;;12.70;;
2896;SDS011;1458;49.728;9.228;2023-02-28T11:38:40;12.97;;;12.57;;
2896;SDS011;1458;49.728;9.228;2023-02-28T11:41:15;12.93;;;12.53;;
2896;SDS011;1458;49.728;9.228;2023-02-28T11:44:00;12.80;;;12.40;;
2896;SDS011;1458;49.728;9.228;2023-02-28T11:46:40;12.80;;;12.40;;
2896;SDS011;1458;49.728;9.228;2023-02-28T11:49:20;12.20;;;11.90;;
2896;SDS011;1458;49.728;9.228;2023-02-28T11:52:01;12.10;;;11.80;;
2896;SDS011;1458;49.728;9.228;2023-02-28T11:54:52;12.20;;;11.90;;
2896;SDS011;1458;49.728;9.228;2023-02-28T11:57:31;12.60;;;12.20;;
2896;SDS011;1458;49.728;9.228;2023-02-28T12:00:13;12.63;;;12.23;;
2896;SDS011;1458;49.728;9.228;2023-02-28T12:03:02;12.33;;;12.03;;
2896;SDS011;1458;49.728;9.228;2023-02-28T12:05:43;12.70;;;12.30;;
2896;SDS011;1458;49.728;9.228;2023-02-28T12:08:18;12.60;;;12.20;;
2896;SDS011;1458;49.728;9.228;2023-02-28T12:11:00;12.70;;;12.30;;
2896;SDS011;1458;49.728;9.228;2023-02-28T12:13:38;12.70;;;12.30;;
2896;SDS011;1458;49.728;9.228;2023-02-28T12:16:21;12.90;;;12.50;;
2896;SDS011;1458;49.728;9.228;2023-02-28T12:19:16;12.50;;;12.10;;
2896;SDS011;1458;49.728;9.228;2023-02-28T12:22:02;12.10;;;11.80;;
2896;SDS011;1458;49.728;9.228;2023-02-28T12:24:48;12.50;;;12.10;;
2896;SDS011;1458;49.728;9.228;2023-02-28T12:27:48;12.70;;;12.30;;
2896;SDS011;1458;49.728;9.228;2023-02-28T12:30:19;12.80;;;12.40;;
2896;SDS011;1458;49.728;9.228;2023-02-28T12:32:52;12.30;;;12.00;;
2896;SDS011;1458;49.728;9.228;2023-02-28T12:35:25;12.50;;;12.20;;
2896;SDS011;1458;49.728;9.228;2023-02-28T12:38:04;12.63;;;12.23;;
2896;SDS011;1458;49.728;9.228;2023-02-28T12:40:41;12.50;;;12.20;;
2896;SDS011;1458;49.728;9.228;2023-02-28T12:43:12;12.80;;;12.40;;
2896;SDS011;1458;49.728;9.228;2023-02-28T12:45:44;12.50;;;12.10;;
2896;SDS011;1458;49.728;9.228;2023-02-28T12:48:15;12.80;;;12.40;;
2896;SDS011;1458;49.728;9.228;2023-02-28T12:50:51;12.37;;;12.07;;
2896;SDS011;1458;49.728;9.228;2023-02-28T12:53:21;12.97;;;12.57;;
2896;SDS011;1458;49.728;9.228;2023-02-28T12:55:57;13.20;;;12.80;;
2896;SDS011;1458;49.728;9.228;2023-02-28T12:58:41;12.40;;;12.10;;
2896;SDS011;1458;49.728;9.228;2023-02-28T13:04:47;13.23;;;12.83;;
2896;SDS011;1458;49.728;9.228;2023-02-28T13:07:49;13.27;;;12.87;;
2896;SDS011;1458;49.728;9.228;2023-02-28T13:10:47;12.90;;;12.50;;
2896;SDS011;1458;49.728;9.228;2023-02-28T13:13:20;13.00;;;12.60;;
2896;SDS011;1458;49.728;9.228;2023-02-28T13:15:57;12.90;;;12.50;;
2896;SDS011;1458;49.728;9.228;2023-02-28T13:18:29;12.83;;;12.43;;
2896;SDS011;1458;49.728;9.228;2023-02-28T13:21:01;12.67;;;12.27;;
2896;SDS011;1458;49.728;9.228;2023-02-28T13:23:36;12.87;;;12.47;;
2896;SDS011;1458;49.728;9.228;2023-02-28T13:26:09;13.10;;;12.70;;
2896;SDS011;1458;49.728;9.228;2023-02-28T13:38:23;13.10;;;12.70;;
2896;SDS011;1458;49.728;9.228;2023-02-28T13:44:15;13.40;;;13.00;;
2896;SDS011;1458;49.728;9.228;2023-02-28T13:49:50;13.60;;;13.20;;
2896;SDS011;1458;49.728;9.228;2023-02-28T13:52:20;13.30;;;12.90;;
2896;SDS011;1458;49.728;9.228;2023-02-28T13:54:54;13.00;;;12.60;;
2896;SDS011;1458;49.728;9.228;2023-02-28T13:57:44;13.00;;;12.60;;
2896;SDS011;1458;49.728;9.228;2023-02-28T14:00:33;12.90;;;12.50;;
2896;SDS011;1458;49.728;9.228;2023-02-28T14:03:18;12.80;;;12.40;;
2896;SDS011;1458;49.728;9.228;2023-02-28T14:06:10;12.33;;;12.03;;
2896;SDS011;1458;49.728;9.228;2023-02-28T14:08:50;12.50;;;12.10;;
2896;SDS011;1458;49.728;9.228;2023-02-28T14:11:30;12.60;;;12.20;;
2896;SDS011;1458;49.728;9.228;2023-02-28T14:14:02;12.70;;;12.30;;
2896;SDS011;1458;49.728;9.228;2023-02-28T14:16:39;12.70;;;12.30;;
2896;SDS011;1458;49.728;9.228;2023-02-28T14:19:11;12.70;;;12.30;;
2896;SDS011;1458;49.728;9.228;2023-02-28T14:21:48;12.40;;;12.10;;
2896;SDS011;1458;49.728;9.228;2023-02-28T14:24:48;12.70;;;12.30;;
2896;SDS011;1458;49.728;9.228;2023-02-28T14:27:37;12.50;;;12.10;;
2896;SDS011;1458;49.728;9.228;2023-02-28T14:30:32;12.80;;;12.40;;
2896;SDS011;1458;49.728;9.228;2023-02-28T14:33:25;12.97;;;12.57;;
2896;SDS011;1458;49.728;9.228;2023-02-28T14:36:02;12.83;;;12.43;;
2896;SDS011;1458;49.728;9.228;2023-02-28T14:38:40;13.00;;;12.60;;
2896;SDS011;1458;49.728;9.228;2023-02-28T14:41:14;13.20;;;12.80;;
2896;SDS011;1458;49.728;9.228;2023-02-28T14:43:48;13.00;;;12.60;;
2896;SDS011;1458;49.728;9.228;2023-02-28T14:46:19;13.13;;;12.73;;
2896;SDS011;1458;49.728;9.228;2023-02-28T14:48:47;12.90;;;12.50;;
2896;SDS011;1458;49.728;9.228;2023-02-28T14:51:20;13.10;;;12.70;;
2896;SDS011;1458;49.728;9.228;2023-02-28T14:53:50;13.10;;;12.70;;
2896;SDS011;1458;49.728;9.228;2023-02-28T14:56:26;13.80;;;13.40;;
2896;SDS011;1458;49.728;9.228;2023-02-28T14:59:01;13.40;;;13.00;;
2896;SDS011;1458;49.728;9.228;2023-02-28T15:01:30;13.50;;;13.10;;
2896;SDS011;1458;49.728;9.228;2023-02-28T15:03:59;14.20;;;13.70;;
2896;SDS011;1458;49.728;9.228;2023-02-28T15:06:29;13.63;;;13.23;;
2896;SDS011;1458;49.728;9.228;2023-02-28T15:09:08;13.77;;;13.27;;
2896;SDS011;1458;49.728;9.228;2023-02-28T15:11:37;14.10;;;13.60;;
2896;SDS011;1458;49.728;9.228;2023-02-28T15:14:07;14.00;;;13.50;;
2896;SDS011;1458;49.728;9.228;2023-02-28T15:16:43;13.97;;;13.47;;
2896;SDS011;1458;49.728;9.228;2023-02-28T15:19:14;13.90;;;13.40;;
2896;SDS011;1458;49.728;9.228;2023-02-28T15:21:48;13.40;;;13.00;;
2896;SDS011;1458;49.728;9.228;2023-02-28T15:24:20;13.67;;;13.17;;
2896;SDS011;1458;49.728;9.228;2023-02-28T15:27:04;13.50;;;13.10;;
2896;SDS011;1458;49.728;9.228;2023-02-28T15:29:42;14.00;;;13.50;;
2896;SDS011;1458;49.728;9.228;2023-02-28T15:32:26;14.00;;;13.50;;
2896;SDS011;1458;49.728;9.228;2023-02-28T15:34:55;13.83;;;13.33;;
2896;SDS011;1458;49.728;9.228;2023-02-28T15:37:29;13.80;;;13.30;;
2896;SDS011;1458;49.728;9.228;2023-02-28T15:40:15;13.77;;;13.27;;
2896;SDS011;1458;49.728;9.228;2023-02-28T15:42:57;13.70;;;13.20;;
2896;SDS011;1458;49.728;9.228;2023-02-28T15:45:34;13.80;;;13.30;;
2896;SDS011;1458;49.728;9.228;2023-02-28T15:48:13;13.90;;;13.40;;
2896;SDS011;1458;49.728;9.228;2023-02-28T15:50:48;13.90;;;13.40;;
2896;SDS011;1458;49.728;9.228;2023-02-28T15:53:19;13.90;;;13.40;;
2896;SDS011;1458;49.728;9.228;2023-02-28T15:58:47;14.20;;;13.70;;
2896;SDS011;1458;49.728;9.228;2023-02-28T16:01:19;14.30;;;13.80;;
2896;SDS011;1458;49.728;9.228;2023-02-28T16:03:53;14.30;;;13.80;;
2896;SDS011;1458;49.728;9.228;2023-02-28T16:06:32;14.60;;;14.10;;
2896;SDS011;1458;49.728;9.228;2023-02-28T16:09:08;14.70;;;14.20;;
2896;SDS011;1458;49.728;9.228;2023-02-28T16:11:41;14.40;;;13.90;;
2896;SDS011;1458;49.728;9.228;2023-02-28T16:14:13;14.20;;;13.70;;
2896;SDS011;1458;49.728;9.228;2023-02-28T16:16:44;14.50;;;14.00;;
2896;SDS011;1458;49.728;9.228;2023-02-28T16:19:15;14.27;;;13.77;;
2896;SDS011;1458;49.728;9.228;2023-02-28T16:21:43;14.30;;;13.80;;
2896;SDS011;1458;49.728;9.228;2023-02-28T16:24:10;14.40;;;13.90;;